sensor_id;sensor_type;location;lat;lon;timestamp;pressure;altitude;pressure_sealevel;temperature;humidity
64827;BME280;51265;53.972;12.286;2024-03-22T00:01:56;101149.09;;;6.20;100.00
64827;BME280;51265;53.972;12.286;2024-03-22T00:04:23;101153.47;;;6.21;100.00
64827;BME280;51265;53.972;12.286;2024-03-22T00:06:49;101144.19;;;6.22;100.00
64827;BME280;51265;53.972;12.286;2024-03-22T00:09:16;101140.94;;;6.25;100.00
64827;BME280;51265;53.972;12.286;2024-03-22T00:11:43;101125.03;;;6.22;100.00
64827;BME280;51265;53.972;12.286;2024-03-22T00:14:11;101112.41;;;6.16;100.00
64827;BME280;51265;53.972;12.286;2024-03-22T00:16:37;101115.47;;;6.19;100.00
64827;BME280;51265;53.972;12.286;2024-03-22T00:19:04;101106.34;;;6.14;100.00
64827;BME280;51265;53.972;12.286;2024-03-22T00:21:30;101106.88;;;6.11;100.00
64827;BME280;51265;53.972;12.286;2024-03-22T00:23:57;101111.78;;;6.09;100.00
64827;BME280;51265;53.972;12.286;2024-03-22T00:26:24;101100.00;;;6.08;100.00
64827;BME280;51265;53.972;12.286;2024-03-22T00:28:50;101100.28;;;6.07;100.00
64827;BME280;51265;53.972;12.286;2024-03-22T00:31:16;101088.25;;;6.08;100.00
64827;BME280;51265;53.972;12.286;2024-03-22T00:33:43;101080.56;;;6.05;100.00
64827;BME280;51265;53.972;12.286;2024-03-22T00:36:09;101083.28;;;6.05;100.00
64827;BME280;51265;53.972;12.286;2024-03-22T00:38:35;101098.09;;;6.09;100.00
64827;BME280;51265;53.972;12.286;2024-03-22T00:41:02;101094.59;;;6.13;100.00
64827;BME280;51265;53.972;12.286;2024-03-22T00:43:28;101100.06;;;6.13;100.00
64827;BME280;51265;53.972;12.286;2024-03-22T00:45:54;101083.91;;;6.12;100.00
64827;BME280;51265;53.972;12.286;2024-03-22T00:48:20;101083.34;;;6.10;100.00
64827;BME280;51265;53.972;12.286;2024-03-22T00:50:46;101068.84;;;6.09;100.00
64827;BME280;51265;53.972;12.286;2024-03-22T00:53:13;101072.41;;;6.10;100.00
64827;BME280;51265;53.972;12.286;2024-03-22T00:55:39;101078.44;;;6.12;100.00
64827;BME280;51265;53.972;12.286;2024-03-22T00:58:05;101074.06;;;6.11;100.00
64827;BME280;51265;53.972;12.286;2024-03-22T01:00:31;101073.53;;;6.14;100.00
64827;BME280;51265;53.972;12.286;2024-03-22T01:02:57;101056.00;;;6.10;100.00
64827;BME280;51265;53.972;12.286;2024-03-22T01:05:24;101043.09;;;6.05;100.00
64827;BME280;51265;53.972;12.286;2024-03-22T01:07:50;101039.00;;;6.03;100.00
64827;BME280;51265;53.972;12.286;2024-03-22T01:10:16;101026.38;;;6.02;100.00
64827;BME280;51265;53.972;12.286;2024-03-22T01:12:42;101025.81;;;5.99;100.00
64827;BME280;51265;53.972;12.286;2024-03-22T01:15:08;101031.84;;;6.02;100.00
64827;BME280;51265;53.972;12.286;2024-03-22T01:17:35;101028.56;;;5.99;100.00
64827;BME280;51265;53.972;12.286;2024-03-22T01:20:05;101031.28;;;5.99;100.00
64827;BME280;51265;53.972;12.286;2024-03-22T01:22:35;101034.66;;;6.07;100.00
64827;BME280;51265;53.972;12.286;2024-03-22T01:25:05;101028.63;;;6.10;100.00
64827;BME280;51265;53.972;12.286;2024-03-22T01:27:39;101019.88;;;6.08;100.00
64827;BME280;51265;53.972;12.286;2024-03-22T01:30:05;101016.06;;;6.09;100.00
64827;BME280;51265;53.972;12.286;2024-03-22T01:32:32;101010.09;;;6.12;100.00
64827;BME280;51265;53.972;12.286;2024-03-22T01:34:58;101006.53;;;6.11;100.00
64827;BME280;51265;53.972;12.286;2024-03-22T01:37:24;101002.97;;;6.11;100.00
64827;BME280;51265;53.972;12.286;2024-03-22T01:39:50;101003.53;;;6.13;100.00
64827;BME280;51265;53.972;12.286;2024-03-22T01:42:17;101002.44;;;6.14;100.00
64827;BME280;51265;53.972;12.286;2024-03-22T01:44:43;101000.28;;;6.16;100.00
64827;BME280;51265;53.972;12.286;2024-03-22T01:47:09;100992.88;;;6.16;100.00
64827;BME280;51265;53.972;12.286;2024-03-22T01:49:36;100994.81;;;6.16;100.00
64827;BME280;51265;53.972;12.286;2024-03-22T01:52:02;101001.41;;;6.20;100.00
64827;BME280;51265;53.972;12.286;2024-03-22T01:54:29;100999.22;;;6.22;100.00
64827;BME280;51265;53.972;12.286;2024-03-22T01:56:56;100990.78;;;6.23;100.00
64827;BME280;51265;53.972;12.286;2024-03-22T01:59:22;100978.69;;;6.19;100.00
64827;BME280;51265;53.972;12.286;2024-03-22T02:01:49;100966.94;;;6.19;100.00
64827;BME280;51265;53.972;12.286;2024-03-22T02:04:15;100965.06;;;6.24;100.00
64827;BME280;51265;53.972;12.286;2024-03-22T02:06:41;100953.81;;;6.21;100.00
64827;BME280;51265;53.972;12.286;2024-03-22T02:09:07;100947.31;;;6.27;100.00
64827;BME280;51265;53.972;12.286;2024-03-22T02:11:38;100935.25;;;6.23;100.00
64827;BME280;51265;53.972;12.286;2024-03-22T02:14:05;100925.97;;;6.29;100.00
64827;BME280;51265;53.972;12.286;2024-03-22T02:16:31;100931.44;;;6.29;100.00
64827;BME280;51265;53.972;12.286;2024-03-22T02:18:57;100923.25;;;6.29;100.00
64827;BME280;51265;53.972;12.286;2024-03-22T02:21:24;100930.94;;;6.32;100.00
64827;BME280;51265;53.972;12.286;2024-03-22T02:23:50;100938.09;;;6.43;100.00
64827;BME280;51265;53.972;12.286;2024-03-22T02:26:16;100932.38;;;6.45;100.00
64827;BME280;51265;53.972;12.286;2024-03-22T02:28:42;100933.22;;;6.51;100.00
64827;BME280;51265;53.972;12.286;2024-03-22T02:31:08;100923.97;;;6.57;100.00
64827;BME280;51265;53.972;12.286;2024-03-22T02:33:34;100919.63;;;6.61;100.00
64827;BME280;51265;53.972;12.286;2024-03-22T02:36:01;100897.16;;;6.59;100.00
64827;BME280;51265;53.972;12.286;2024-03-22T02:38:27;100894.19;;;6.65;100.00
64827;BME280;51265;53.972;12.286;2024-03-22T02:40:53;100879.09;;;6.58;100.00
64827;BME280;51265;53.972;12.286;2024-03-22T02:43:19;100881.31;;;6.61;100.00
64827;BME280;51265;53.972;12.286;2024-03-22T02:45:47;100879.94;;;6.63;100.00
64827;BME280;51265;53.972;12.286;2024-03-22T02:48:14;100869.81;;;6.64;100.00
64827;BME280;51265;53.972;12.286;2024-03-22T02:50:41;100873.63;;;6.63;100.00
64827;BME280;51265;53.972;12.286;2024-03-22T02:53:07;100874.75;;;6.67;100.00
64827;BME280;51265;53.972;12.286;2024-03-22T02:55:37;100874.78;;;6.77;100.00
64827;BME280;51265;53.972;12.286;2024-03-22T02:58:04;100874.78;;;6.77;100.00
64827;BME280;51265;53.972;12.286;2024-03-22T03:00:32;100878.09;;;6.79;100.00
64827;BME280;51265;53.972;12.286;2024-03-22T03:03:01;100877.00;;;6.85;100.00
64827;BME280;51265;53.972;12.286;2024-03-22T03:05:27;100877.59;;;6.92;100.00
64827;BME280;51265;53.972;12.286;2024-03-22T03:07:53;100862.50;;;6.80;100.00
64827;BME280;51265;53.972;12.286;2024-03-22T03:10:19;100849.69;;;6.95;100.00
64827;BME280;51265;53.972;12.286;2024-03-22T03:12:45;100839.25;;;6.92;100.00
64827;BME280;51265;53.972;12.286;2024-03-22T03:15:12;100835.41;;;6.93;100.00
64827;BME280;51265;53.972;12.286;2024-03-22T03:17:38;100826.69;;;7.02;100.00
64827;BME280;51265;53.972;12.286;2024-03-22T03:20:05;100819.00;;;6.93;100.00
64827;BME280;51265;53.972;12.286;2024-03-22T03:22:34;100811.88;;;6.92;100.00
64827;BME280;51265;53.972;12.286;2024-03-22T03:25:01;100804.75;;;6.91;100.00
64827;BME280;51265;53.972;12.286;2024-03-22T03:27:28;100787.22;;;6.87;100.00
64827;BME280;51265;53.972;12.286;2024-03-22T03:29:54;100789.44;;;6.90;100.00
64827;BME280;51265;53.972;12.286;2024-03-22T03:32:21;100782.84;;;6.91;100.00
64827;BME280;51265;53.972;12.286;2024-03-22T03:34:47;100772.72;;;6.92;100.00
64827;BME280;51265;53.972;12.286;2024-03-22T03:37:14;100781.22;;;6.90;100.00
64827;BME280;51265;53.972;12.286;2024-03-22T03:39:40;100791.09;;;7.02;100.00
64827;BME280;51265;53.972;12.286;2024-03-22T03:42:06;100800.97;;;7.03;100.00
64827;BME280;51265;53.972;12.286;2024-03-22T03:44:32;100791.66;;;7.09;100.00
64827;BME280;51265;53.972;12.286;2024-03-22T03:47:01;100784.53;;;7.08;100.00
64827;BME280;51265;53.972;12.286;2024-03-22T03:49:27;100770.84;;;7.08;100.00
64827;BME280;51265;53.972;12.286;2024-03-22T03:51:53;100752.78;;;7.07;100.00
64827;BME280;51265;53.972;12.286;2024-03-22T03:54:19;100764.53;;;7.07;100.00
64827;BME280;51265;53.972;12.286;2024-03-22T03:56:45;100755.22;;;7.08;100.00
64827;BME280;51265;53.972;12.286;2024-03-22T03:59:12;100749.47;;;7.05;100.00
64827;BME280;51265;53.972;12.286;2024-03-22T04:01:38;100754.13;;;7.09;100.00
64827;BME280;51265;53.972;12.286;2024-03-22T04:04:04;100752.19;;;7.10;100.00
64827;BME280;51265;53.972;12.286;2024-03-22T04:06:30;100725.38;;;7.07;100.00
64827;BME280;51265;53.972;12.286;2024-03-22T04:08:56;100725.38;;;7.07;100.00
64827;BME280;51265;53.972;12.286;2024-03-22T04:11:23;100723.72;;;7.06;100.00
64827;BME280;51265;53.972;12.286;2024-03-22T04:13:50;100722.38;;;7.08;100.00
64827;BME280;51265;53.972;12.286;2024-03-22T04:16:16;100733.59;;;7.12;100.00
64827;BME280;51265;53.972;12.286;2024-03-22T04:18:42;100721.53;;;7.13;100.00
64827;BME280;51265;53.972;12.286;2024-03-22T04:21:08;100725.13;;;7.23;100.00
64827;BME280;51265;53.972;12.286;2024-03-22T04:23:34;100732.22;;;7.14;100.00
64827;BME280;51265;53.972;12.286;2024-03-22T04:26:01;100721.53;;;7.18;100.00
64827;BME280;51265;53.972;12.286;2024-03-22T04:28:28;100707.59;;;7.19;100.00
64827;BME280;51265;53.972;12.286;2024-03-22T04:31:06;100705.09;;;7.23;100.00
64827;BME280;51265;53.972;12.286;2024-03-22T04:33:32;100708.69;;;7.23;100.00
64827;BME280;51265;53.972;12.286;2024-03-22T04:36:00;100702.09;;;7.19;100.00
64827;BME280;51265;53.972;12.286;2024-03-22T04:38:29;100682.38;;;7.17;100.00
64827;BME280;51265;53.972;12.286;2024-03-22T04:40:56;100682.09;;;7.14;100.00
64827;BME280;51265;53.972;12.286;2024-03-22T04:43:26;100676.34;;;7.10;100.00
64827;BME280;51265;53.972;12.286;2024-03-22T04:45:52;100675.53;;;7.10;100.00
64827;BME280;51265;53.972;12.286;2024-03-22T04:48:22;100670.03;;;7.10;100.00
64827;BME280;51265;53.972;12.286;2024-03-22T04:50:50;100657.44;;;7.09;100.00
64827;BME280;51265;53.972;12.286;2024-03-22T04:53:17;100648.13;;;7.10;100.00
64827;BME280;51265;53.972;12.286;2024-03-22T04:55:45;100648.69;;;7.07;100.00
64827;BME280;51265;53.972;12.286;2024-03-22T04:58:16;100649.25;;;7.04;100.00
64827;BME280;51265;53.972;12.286;2024-03-22T05:00:43;100662.13;;;7.08;100.00
64827;BME280;51265;53.972;12.286;2024-03-22T05:03:10;100670.06;;;7.20;100.00
64827;BME280;51265;53.972;12.286;2024-03-22T05:05:37;100659.63;;;7.27;100.00
64827;BME280;51265;53.972;12.286;2024-03-22T05:08:04;100653.03;;;7.23;100.00
64827;BME280;51265;53.972;12.286;2024-03-22T05:10:30;100658.78;;;7.27;100.00
64827;BME280;51265;53.972;12.286;2024-03-22T05:12:57;100661.78;;;7.35;100.00
64827;BME280;51265;53.972;12.286;2024-03-22T05:15:24;100641.28;;;7.33;100.00
64827;BME280;51265;53.972;12.286;2024-03-22T05:17:53;100652.50;;;7.26;100.00
64827;BME280;51265;53.972;12.286;2024-03-22T05:20:20;100644.84;;;7.18;100.00
64827;BME280;51265;53.972;12.286;2024-03-22T05:22:47;100635.00;;;7.17;100.00
64827;BME280;51265;53.972;12.286;2024-03-22T05:25:14;100644.84;;;7.18;100.00
64827;BME280;51265;53.972;12.286;2024-03-22T05:27:42;100645.94;;;7.22;100.00
64827;BME280;51265;53.972;12.286;2024-03-22T05:30:12;100647.03;;;7.16;100.00
64827;BME280;51265;53.972;12.286;2024-03-22T05:32:42;100649.22;;;7.14;100.00
64827;BME280;51265;53.972;12.286;2024-03-22T05:35:08;100645.41;;;7.15;100.00
64827;BME280;51265;53.972;12.286;2024-03-22T05:37:35;100654.69;;;7.14;100.00
64827;BME280;51265;53.972;12.286;2024-03-22T05:40:02;100654.72;;;7.24;100.00
64827;BME280;51265;53.972;12.286;2024-03-22T05:42:30;100652.22;;;7.22;100.00
64827;BME280;51265;53.972;12.286;2024-03-22T05:44:57;100641.28;;;7.28;100.00
64827;BME280;51265;53.972;12.286;2024-03-22T05:47:23;100632.78;;;7.24;100.00
64827;BME280;51265;53.972;12.286;2024-03-22T05:49:49;100628.38;;;7.23;100.00
64827;BME280;51265;53.972;12.286;2024-03-22T05:52:15;100620.16;;;7.23;100.00
64827;BME280;51265;53.972;12.286;2024-03-22T05:54:41;100634.97;;;7.27;100.00
64827;BME280;51265;53.972;12.286;2024-03-22T05:57:08;100630.31;;;7.22;100.00
64827;BME280;51265;53.972;12.286;2024-03-22T05:59:34;100621.03;;;7.23;100.00
64827;BME280;51265;53.972;12.286;2024-03-22T06:02:00;100623.47;;;7.25;100.00
64827;BME280;51265;53.972;12.286;2024-03-22T06:04:27;100622.91;;;7.23;100.00
64827;BME280;51265;53.972;12.286;2024-03-22T06:06:53;100615.53;;;7.23;100.00
64827;BME280;51265;53.972;12.286;2024-03-22T06:09:20;100612.50;;;7.25;100.00
64827;BME280;51265;53.972;12.286;2024-03-22T06:12:01;100625.63;;;7.38;100.00
64827;BME280;51265;53.972;12.286;2024-03-22T06:14:28;100627.28;;;7.44;100.00
64827;BME280;51265;53.972;12.286;2024-03-22T06:16:54;100627.50;;;7.48;100.00
64827;BME280;51265;53.972;12.286;2024-03-22T06:19:20;100626.16;;;7.51;100.00
64827;BME280;51265;53.972;12.286;2024-03-22T06:21:47;100623.97;;;7.53;100.00
64827;BME280;51265;53.972;12.286;2024-03-22T06:24:13;100623.97;;;7.53;100.00
64827;BME280;51265;53.972;12.286;2024-03-22T06:26:39;100619.56;;;7.62;100.00
64827;BME280;51265;53.972;12.286;2024-03-22T06:29:06;100628.03;;;7.65;100.00
64827;BME280;51265;53.972;12.286;2024-03-22T06:31:32;100624.50;;;7.55;100.00
64827;BME280;51265;53.972;12.286;2024-03-22T06:33:58;100614.91;;;7.57;100.00
64827;BME280;51265;53.972;12.286;2024-03-22T06:36:29;100612.41;;;7.66;100.00
64827;BME280;51265;53.972;12.286;2024-03-22T06:38:56;100602.53;;;7.70;100.00
64827;BME280;51265;53.972;12.286;2024-03-22T06:41:22;100596.22;;;7.69;100.00
64827;BME280;51265;53.972;12.286;2024-03-22T06:43:48;100591.50;;;7.80;100.00
64827;BME280;51265;53.972;12.286;2024-03-22T06:46:14;100587.66;;;7.81;100.00
64827;BME280;51265;53.972;12.286;2024-03-22T06:48:40;100581.06;;;7.87;100.00
64827;BME280;51265;53.972;12.286;2024-03-22T06:51:06;100583.25;;;7.90;100.00
64827;BME280;51265;53.972;12.286;2024-03-22T06:53:33;100580.22;;;7.92;100.00
64827;BME280;51265;53.972;12.286;2024-03-22T06:55:59;100573.88;;;7.96;100.00
64827;BME280;51265;53.972;12.286;2024-03-22T06:58:25;100570.63;;;7.94;100.00
64827;BME280;51265;53.972;12.286;2024-03-22T07:00:51;100572.25;;;7.95;100.00
64827;BME280;51265;53.972;12.286;2024-03-22T07:03:18;100566.44;;;8.02;100.00
64827;BME280;51265;53.972;12.286;2024-03-22T07:05:44;100555.72;;;8.06;100.00
64827;BME280;51265;53.972;12.286;2024-03-22T07:08:10;100551.56;;;8.13;100.00
64827;BME280;51265;53.972;12.286;2024-03-22T07:10:39;100554.56;;;8.17;100.00
64827;BME280;51265;53.972;12.286;2024-03-22T07:13:06;100545.19;;;8.23;100.00
64827;BME280;51265;53.972;12.286;2024-03-22T07:15:32;100531.44;;;8.28;100.00
64827;BME280;51265;53.972;12.286;2024-03-22T07:17:58;100532.50;;;8.32;100.00
64827;BME280;51265;53.972;12.286;2024-03-22T07:20:25;100527.78;;;8.43;100.00
64827;BME280;51265;53.972;12.286;2024-03-22T07:22:51;100534.03;;;8.54;100.00
64827;BME280;51265;53.972;12.286;2024-03-22T07:25:18;100520.75;;;8.66;100.00
64827;BME280;51265;53.972;12.286;2024-03-22T07:27:44;100516.94;;;8.57;100.00
64827;BME280;51265;53.972;12.286;2024-03-22T07:30:12;100501.94;;;8.49;100.00
64827;BME280;51265;53.972;12.286;2024-03-22T07:32:39;100507.53;;;8.68;100.00
64827;BME280;51265;53.972;12.286;2024-03-22T07:35:05;100507.44;;;8.78;100.00
64827;BME280;51265;53.972;12.286;2024-03-22T07:37:33;100498.78;;;8.90;100.00
64827;BME280;51265;53.972;12.286;2024-03-22T07:40:02;100482.31;;;8.90;100.00
64827;BME280;51265;53.972;12.286;2024-03-22T07:42:28;100476.00;;;8.89;100.00
64827;BME280;51265;53.972;12.286;2024-03-22T07:44:54;100466.88;;;8.94;100.00
64827;BME280;51265;53.972;12.286;2024-03-22T07:47:20;100461.75;;;9.11;100.00
64827;BME280;51265;53.972;12.286;2024-03-22T07:49:47;100468.34;;;9.34;100.00
64827;BME280;51265;53.972;12.286;2024-03-22T07:52:13;100462.78;;;9.39;100.00
64827;BME280;51265;53.972;12.286;2024-03-22T07:54:39;100458.31;;;9.43;100.00
64827;BME280;51265;53.972;12.286;2024-03-22T07:57:05;100451.19;;;9.42;100.00
64827;BME280;51265;53.972;12.286;2024-03-22T07:59:32;100444.66;;;9.38;100.00
64827;BME280;51265;53.972;12.286;2024-03-22T08:01:58;100427.34;;;9.57;100.00
64827;BME280;51265;53.972;12.286;2024-03-22T08:04:24;100429.59;;;9.55;100.00
64827;BME280;51265;53.972;12.286;2024-03-22T08:06:51;100426.53;;;9.75;100.00
64827;BME280;51265;53.972;12.286;2024-03-22T08:09:17;100401.13;;;9.64;100.00
64827;BME280;51265;53.972;12.286;2024-03-22T08:11:44;100406.38;;;9.80;100.00
64827;BME280;51265;53.972;12.286;2024-03-22T08:14:12;100401.25;;;9.73;100.00
64827;BME280;51265;53.972;12.286;2024-03-22T08:16:38;100406.97;;;9.95;100.00
64827;BME280;51265;53.972;12.286;2024-03-22T08:19:04;100405.53;;;9.98;100.00
64827;BME280;51265;53.972;12.286;2024-03-22T08:21:30;100397.50;;;10.02;100.00
64827;BME280;51265;53.972;12.286;2024-03-22T08:23:56;100401.19;;;10.11;100.00
64827;BME280;51265;53.972;12.286;2024-03-22T08:26:22;100397.50;;;10.02;100.00
64827;BME280;51265;53.972;12.286;2024-03-22T08:28:49;100398.72;;;9.95;100.00
64827;BME280;51265;53.972;12.286;2024-03-22T08:31:15;100400.34;;;9.96;100.00
64827;BME280;51265;53.972;12.286;2024-03-22T08:33:43;100390.53;;;9.90;100.00
64827;BME280;51265;53.972;12.286;2024-03-22T08:36:09;100389.50;;;9.86;100.00
64827;BME280;51265;53.972;12.286;2024-03-22T08:38:35;100380.06;;;9.92;100.00
64827;BME280;51265;53.972;12.286;2024-03-22T08:41:01;100385.69;;;10.01;100.00
64827;BME280;51265;53.972;12.286;2024-03-22T08:43:28;100390.03;;;10.21;100.00
64827;BME280;51265;53.972;12.286;2024-03-22T08:45:55;100372.88;;;10.24;100.00
64827;BME280;51265;53.972;12.286;2024-03-22T08:48:21;100370.78;;;10.21;100.00
64827;BME280;51265;53.972;12.286;2024-03-22T08:50:48;100370.91;;;10.30;100.00
64827;BME280;51265;53.972;12.286;2024-03-22T08:53:14;100360.13;;;10.33;100.00
64827;BME280;51265;53.972;12.286;2024-03-22T08:55:47;100358.88;;;10.39;100.00
64827;BME280;51265;53.972;12.286;2024-03-22T08:58:14;100363.19;;;10.45;100.00
64827;BME280;51265;53.972;12.286;2024-03-22T09:00:41;100370.16;;;10.70;100.00
64827;BME280;51265;53.972;12.286;2024-03-22T09:03:08;100349.13;;;10.61;100.00
64827;BME280;51265;53.972;12.286;2024-03-22T09:05:34;100353.81;;;10.88;100.00
64827;BME280;51265;53.972;12.286;2024-03-22T09:08:01;100345.53;;;11.02;100.00
64827;BME280;51265;53.972;12.286;2024-03-22T09:10:30;100339.53;;;11.00;100.00
64827;BME280;51265;53.972;12.286;2024-03-22T09:12:56;100326.25;;;11.02;100.00
64827;BME280;51265;53.972;12.286;2024-03-22T09:15:22;100330.13;;;11.01;100.00
64827;BME280;51265;53.972;12.286;2024-03-22T09:17:48;100323.88;;;11.09;100.00
64827;BME280;51265;53.972;12.286;2024-03-22T09:20:15;100311.66;;;11.01;100.00
64827;BME280;51265;53.972;12.286;2024-03-22T09:22:42;100306.94;;;11.02;100.00
64827;BME280;51265;53.972;12.286;2024-03-22T09:25:08;100294.69;;;11.08;100.00
64827;BME280;51265;53.972;12.286;2024-03-22T09:27:34;100285.56;;;11.21;100.00
64827;BME280;51265;53.972;12.286;2024-03-22T09:30:00;100294.66;;;11.21;100.00
64827;BME280;51265;53.972;12.286;2024-03-22T09:32:27;100264.41;;;10.94;100.00
64827;BME280;51265;53.972;12.286;2024-03-22T09:34:54;100265.00;;;10.91;100.00
64827;BME280;51265;53.972;12.286;2024-03-22T09:37:20;100257.91;;;10.76;100.00
64827;BME280;51265;53.972;12.286;2024-03-22T09:39:46;100282.34;;;11.05;100.00
64827;BME280;51265;53.972;12.286;2024-03-22T09:42:17;100290.81;;;11.09;100.00
64827;BME280;51265;53.972;12.286;2024-03-22T09:44:47;100291.13;;;10.93;100.00
64827;BME280;51265;53.972;12.286;2024-03-22T09:47:17;100293.13;;;10.79;100.00
64827;BME280;51265;53.972;12.286;2024-03-22T09:49:44;100287.25;;;10.94;100.00
64827;BME280;51265;53.972;12.286;2024-03-22T09:52:15;100286.66;;;10.97;100.00
64827;BME280;51265;53.972;12.286;2024-03-22T09:54:41;100282.88;;;10.93;100.00
64827;BME280;51265;53.972;12.286;2024-03-22T09:57:14;100278.09;;;10.85;100.00
64827;BME280;51265;53.972;12.286;2024-03-22T09:59:42;100287.53;;;10.70;100.00
64827;BME280;51265;53.972;12.286;2024-03-22T10:02:11;100285.56;;;10.71;100.00
64827;BME280;51265;53.972;12.286;2024-03-22T10:04:41;100284.84;;;10.65;100.00
64827;BME280;51265;53.972;12.286;2024-03-22T10:07:07;100284.84;;;10.79;100.00
64827;BME280;51265;53.972;12.286;2024-03-22T10:09:35;100291.97;;;10.80;100.00
64827;BME280;51265;53.972;12.286;2024-03-22T10:12:02;100284.84;;;10.79;100.00
64827;BME280;51265;53.972;12.286;2024-03-22T10:14:29;100282.94;;;10.66;100.00
64827;BME280;51265;53.972;12.286;2024-03-22T10:16:57;100278.31;;;10.61;100.00
64827;BME280;51265;53.972;12.286;2024-03-22T10:19:23;100283.31;;;10.87;100.00
64827;BME280;51265;53.972;12.286;2024-03-22T10:22:02;100290.44;;;11.24;100.00
64827;BME280;51265;53.972;12.286;2024-03-22T10:24:29;100271.78;;;11.43;100.00
64827;BME280;51265;53.972;12.286;2024-03-22T10:26:56;100242.91;;;11.18;100.00
64827;BME280;51265;53.972;12.286;2024-03-22T10:29:22;100241.72;;;11.33;100.00
64827;BME280;51265;53.972;12.286;2024-03-22T10:31:51;100226.28;;;11.32;100.00
64827;BME280;51265;53.972;12.286;2024-03-22T10:34:17;100232.00;;;11.36;100.00
64827;BME280;51265;53.972;12.286;2024-03-22T10:36:46;100221.66;;;11.19;100.00
64827;BME280;51265;53.972;12.286;2024-03-22T10:39:14;100224.16;;;11.07;100.00
64827;BME280;51265;53.972;12.286;2024-03-22T10:41:41;100221.03;;;11.22;100.00
64827;BME280;51265;53.972;12.286;2024-03-22T10:44:10;100222.41;;;11.11;100.00
64827;BME280;51265;53.972;12.286;2024-03-22T10:46:37;100214.81;;;10.94;100.00
64827;BME280;51265;53.972;12.286;2024-03-22T10:49:05;100227.91;;;10.88;100.00
64827;BME280;51265;53.972;12.286;2024-03-22T10:51:34;100202.91;;;10.85;100.00
64827;BME280;51265;53.972;12.286;2024-03-22T10:54:03;100211.41;;;10.61;100.00
64827;BME280;51265;53.972;12.286;2024-03-22T10:56:31;100219.97;;;10.73;100.00
64827;BME280;51265;53.972;12.286;2024-03-22T10:59:02;100227.50;;;10.81;100.00
64827;BME280;51265;53.972;12.286;2024-03-22T11:01:31;100236.28;;;10.83;100.00
64827;BME280;51265;53.972;12.286;2024-03-22T11:04:06;100207.03;;;10.60;100.00
64827;BME280;51265;53.972;12.286;2024-03-22T11:06:37;100225.72;;;10.63;100.00
64827;BME280;51265;53.972;12.286;2024-03-22T11:09:03;100236.75;;;10.35;100.00
64827;BME280;51265;53.972;12.286;2024-03-22T11:11:32;100241.31;;;10.12;100.00
64827;BME280;51265;53.972;12.286;2024-03-22T11:14:03;100252.50;;;10.02;100.00
64827;BME280;51265;53.972;12.286;2024-03-22T11:16:30;100263.59;;;10.11;100.00
64827;BME280;51265;53.972;12.286;2024-03-22T11:18:56;100263.22;;;10.04;100.00
64827;BME280;51265;53.972;12.286;2024-03-22T11:21:22;100268.78;;;9.98;100.00
64827;BME280;51265;53.972;12.286;2024-03-22T11:23:49;100269.00;;;10.02;100.00
64827;BME280;51265;53.972;12.286;2024-03-22T11:26:15;100269.91;;;9.97;100.00
64827;BME280;51265;53.972;12.286;2024-03-22T11:28:42;100273.59;;;9.93;100.00
64827;BME280;51265;53.972;12.286;2024-03-22T11:31:08;100270.19;;;9.82;100.00
64827;BME280;51265;53.972;12.286;2024-03-22T11:33:34;100276.66;;;9.91;100.00
64827;BME280;51265;53.972;12.286;2024-03-22T11:36:01;100268.69;;;9.90;100.00
64827;BME280;51265;53.972;12.286;2024-03-22T11:38:28;100270.50;;;9.94;100.00
64827;BME280;51265;53.972;12.286;2024-03-22T11:40:57;100271.34;;;9.95;100.00
64827;BME280;51265;53.972;12.286;2024-03-22T11:43:27;100269.22;;;9.92;100.00
64827;BME280;51265;53.972;12.286;2024-03-22T11:45:55;100278.16;;;9.97;100.00
64827;BME280;51265;53.972;12.286;2024-03-22T11:48:22;100270.50;;;9.94;100.00
64827;BME280;51265;53.972;12.286;2024-03-22T11:50:49;100261.56;;;10.03;100.00
64827;BME280;51265;53.972;12.286;2024-03-22T11:53:16;100263.50;;;10.02;100.00
64827;BME280;51265;53.972;12.286;2024-03-22T11:55:43;100273.31;;;10.08;100.00
64827;BME280;51265;53.972;12.286;2024-03-22T11:58:12;100262.56;;;9.93;100.00
64827;BME280;51265;53.972;12.286;2024-03-22T12:00:38;100257.91;;;10.07;100.00
64827;BME280;51265;53.972;12.286;2024-03-22T12:03:04;100263.59;;;10.11;100.00
64827;BME280;51265;53.972;12.286;2024-03-22T12:05:32;100254.66;;;10.19;100.00
64827;BME280;51265;53.972;12.286;2024-03-22T12:07:58;100247.97;;;10.25;100.00
64827;BME280;51265;53.972;12.286;2024-03-22T12:10:24;100246.53;;;10.28;100.00
64827;BME280;51265;53.972;12.286;2024-03-22T12:12:50;100247.41;;;10.23;100.00
64827;BME280;51265;53.972;12.286;2024-03-22T12:15:16;100240.72;;;10.29;100.00
64827;BME280;51265;53.972;12.286;2024-03-22T12:17:43;100242.44;;;10.39;100.00
64827;BME280;51265;53.972;12.286;2024-03-22T12:20:09;100235.31;;;10.52;100.00
64827;BME280;51265;53.972;12.286;2024-03-22T12:22:35;100231.50;;;10.75;100.00
64827;BME280;51265;53.972;12.286;2024-03-22T12:25:01;100229.50;;;10.89;100.00
64827;BME280;51265;53.972;12.286;2024-03-22T12:27:30;100224.00;;;10.89;100.00
64827;BME280;51265;53.972;12.286;2024-03-22T12:29:56;100216.16;;;11.19;100.00
64827;BME280;51265;53.972;12.286;2024-03-22T12:32:22;100203.88;;;11.25;100.00
64827;BME280;51265;53.972;12.286;2024-03-22T12:34:49;100201.19;;;11.34;100.00
64827;BME280;51265;53.972;12.286;2024-03-22T12:37:15;100175.66;;;11.28;100.00